メインページ
METAR-TAF:

METAR-TAF

空港 :

クウェート, クウェート

クウェート国際空港

緯度: 29-13N, 経度: 047-59E, 海抜: 55m

現時点の気象観測

当レポートは35分前の23:00(UTC)に作成
南/南東の風 7kt
気温 24°C
湿度 29%
気圧 1007 hPa
視程10km以上
1,500メートル以下は雲なし、積乱雲なし

METAR: OKBK 232300Z 15007KT CAVOK 24/05 Q1007 NOSIG

時間: 02:35 (23:35 UTC)

予報

当レポートは6時間50分前の16:45(UTC)に作成
予報は23日の 18時(UTC)から 24日の 24時(UTC)まで有効
東/南東の風 10kt
視程: 7000m

TAF: OKBK 231645Z 2318/2424 12010KT 7000 NSC

4,000以上の空港の気象観測と天気予報(METAR報とTAF報)

利用可能な観測所は地図上に黄色い丸と赤い丸で示す。

丸の上にカーソルを重ねると観測所名を参照できる。

次にクリックすると気象観測と天気予報を参照できる。

マップの切り替え:黒色「×」印の緑ボタンをクリックして拡大、「-」印の緑ボタンをクリックして縮小、緑色の三角印をクリックして隣りの地図に切り替え


METAR-TAF: